Lees Summit, Missouri
Current Conditions -  °F | °C
As of 2:53 AM on Monday 20 Oct 2014 (Local Time) from KLXT Reporting Station
Clear Clear  
Wind Chill: 54°   Ceiling: Unl
Heat Index: 54°   Visibility: 10mi
Dew Point: 50°   Wind: 7mph
Humidity: 86%   Direction: 240°WSW
Pressure: 30.02"   Gusts: NA
Location:  38.908°N, 94.2968°W
Report Text: KLXT 200753Z AUTO 24006KT 10SM CLR 12/10 A3002 RMK AO2 SLP161 T01220100
Loading
Personal Weather Stations






























Interactive Weather Map New forecast layout! Learn more

10-Day Weather Forecast

Advertisements
Track Severe Weather on mobile